Trilby, Florida
Current Conditions -  °F | °C
As of 4:15 PM on Monday 22 Dec 2014 (Local Time) from KZPH Reporting Station
Broken Clouds Broken Clouds  
Wind Chill: 79°   Ceiling: 4400
Heat Index: 81°   Visibility: 10mi
Dew Point: 68°   Wind: 7mph
Humidity: 69%   Direction: 220°SW
Pressure: 29.92"   Gusts: NA
Location:  28.46°N, 82.19°W
Report Text: KZPH 222115Z AUTO 22006KT 10SM BKN044 26/20 A2992 RMK AO2
Loading
Personal Weather Stations






























Interactive Weather Map New forecast layout! Learn more

10-Day Weather Forecast

Advertisements
Track Severe Weather on mobile